Time;durP1;ratioP1;P1;durP2;ratioP2;P2;SDS_P1;SDS_P2;PMS_P1;PMS_P2;Temp;Humidity;BMP_temperature;BMP_pressure;BME280_temperature;BME280_humidity;BME280_pressure;Samples;Min_cycle;Max_cycle;Signal;HPM_P1;HPM_P2
2023/10/01 00:00:15;;;;;;;7.13;4.78;;;9.70;99.90;;;;;;4961897;28;20035;-79
2023/10/01 00:02:41;;;;;;;7.28;4.25;;;9.80;99.90;;;;;;4972314;28;20027;-80
2023/10/01 00:05:09;;;;;;;8.63;4.18;;;9.80;99.90;;;;;;4978327;28;20118;-80
2023/10/01 00:07:39;;;;;;;8.40;5.05;;;9.80;99.90;;;;;;4967527;28;20045;-79
2023/10/01 00:10:12;;;;;;;9.07;4.38;;;9.70;99.90;;;;;;4965847;28;20113;-78
2023/10/01 00:12:46;;;;;;;7.68;4.75;;;9.70;99.90;;;;;;4960884;28;20626;-79
2023/10/01 00:15:16;;;;;;;7.65;4.68;;;9.70;99.90;;;;;;4985237;28;20034;-79
2023/10/01 00:17:46;;;;;;;8.43;5.00;;;9.70;99.90;;;;;;4979924;28;20411;-79
2023/10/01 00:20:23;;;;;;;8.32;4.38;;;9.70;99.90;;;;;;4986066;28;20064;-79
2023/10/01 00:22:51;;;;;;;11.48;5.30;;;9.60;99.90;;;;;;4975709;28;20062;-79
2023/10/01 00:25:18;;;;;;;9.57;5.45;;;9.60;99.90;;;;;;4976607;28;20053;-78
2023/10/01 00:27:45;;;;;;;7.53;4.60;;;9.60;99.90;;;;;;4958655;28;20097;-79
2023/10/01 00:30:11;;;;;;;8.07;4.75;;;9.60;99.90;;;;;;4975321;28;20030;-81
2023/10/01 00:32:38;;;;;;;11.77;5.13;;;9.60;99.90;;;;;;4969141;28;20026;-79
2023/10/01 00:35:05;;;;;;;8.10;4.95;;;9.50;99.90;;;;;;4976254;28;20034;-79
2023/10/01 00:37:32;;;;;;;8.32;5.30;;;9.50;99.90;;;;;;4962853;28;20053;-79
2023/10/01 00:39:59;;;;;;;10.00;5.30;;;9.50;99.90;;;;;;4973023;28;20073;-79
2023/10/01 00:42:27;;;;;;;8.80;4.78;;;9.50;99.90;;;;;;4979112;28;20055;-78
2023/10/01 00:44:53;;;;;;;7.82;5.20;;;9.50;99.90;;;;;;4980629;28;20038;-79
2023/10/01 00:47:21;;;;;;;8.88;5.05;;;9.50;99.90;;;;;;4960592;28;20367;-79
2023/10/01 00:49:49;;;;;;;9.38;5.18;;;9.50;99.90;;;;;;4971414;28;20035;-79
2023/10/01 00:52:18;;;;;;;10.35;5.20;;;9.40;99.90;;;;;;4979194;28;20031;-78
2023/10/01 00:54:47;;;;;;;8.90;4.68;;;9.40;99.90;;;;;;4970328;28;20027;-80
2023/10/01 00:57:17;;;;;;;8.68;5.10;;;9.40;99.90;;;;;;4975399;28;20029;-80
2023/10/01 00:59:43;;;;;;;7.47;4.80;;;9.40;99.90;;;;;;4954611;28;20825;-79
2023/10/01 01:02:15;;;;;;;8.70;5.47;;;9.40;99.90;;;;;;4936932;28;20739;-80
2023/10/01 01:05:00;;;;;;;8.90;5.32;;;9.40;99.90;;;;;;4974220;28;20034;-78
2023/10/01 01:07:28;;;;;;;8.77;5.32;;;9.40;99.90;;;;;;4976377;28;20063;-79
2023/10/01 01:10:16;;;;;;;9.15;5.07;;;9.30;99.90;;;;;;4976685;28;20138;-79
2023/10/01 01:12:45;;;;;;;10.02;5.60;;;9.20;99.90;;;;;;4978151;28;20031;-79
2023/10/01 01:15:15;;;;;;;10.40;5.75;;;9.20;99.90;;;;;;4972549;28;20022;-79
2023/10/01 01:17:41;;;;;;;8.50;5.25;;;9.20;99.90;;;;;;4965234;28;20476;-78
2023/10/01 01:20:09;;;;;;;8.80;4.57;;;9.20;99.90;;;;;;4963307;28;20031;-80
2023/10/01 01:22:37;;;;;;;8.35;4.95;;;9.20;99.90;;;;;;4983405;28;20495;-80
2023/10/01 01:25:10;;;;;;;8.38;4.80;;;9.20;99.90;;;;;;4956978;28;20038;-79
2023/10/01 01:27:37;;;;;;;8.57;4.78;;;9.20;99.90;;;;;;4980244;28;20398;-79
2023/10/01 01:30:07;;;;;;;9.15;5.70;;;9.20;99.90;;;;;;4977377;28;20037;-79
2023/10/01 01:32:36;;;;;;;7.07;4.50;;;9.20;99.90;;;;;;4978866;28;20061;-77
2023/10/01 01:35:05;;;;;;;11.55;4.63;;;9.20;99.90;;;;;;4966867;28;20034;-79
2023/10/01 01:37:46;;;;;;;9.90;4.95;;;9.20;99.90;;;;;;4964756;28;20030;-79
2023/10/01 01:40:25;;;;;;;10.02;5.68;;;9.30;99.90;;;;;;4977090;28;20113;-79
2023/10/01 01:42:56;;;;;;;11.10;5.38;;;9.30;99.90;;;;;;4968156;28;20035;-78
2023/10/01 01:45:32;;;;;;;10.95;5.18;;;9.30;99.90;;;;;;4948487;28;20094;-80
2023/10/01 01:48:00;;;;;;;9.30;5.05;;;9.30;99.90;;;;;;4984933;28;20519;-81
2023/10/01 01:50:26;;;;;;;9.65;5.15;;;9.30;99.90;;;;;;4974861;28;20427;-78
2023/10/01 01:52:56;;;;;;;9.60;5.15;;;9.20;99.90;;;;;;4977174;28;20035;-78
2023/10/01 01:55:27;;;;;;;10.18;5.00;;;9.10;99.90;;;;;;4965112;28;20077;-77
2023/10/01 01:58:10;;;;;;;10.40;5.10;;;9.10;99.90;;;;;;4967971;28;20076;-79
2023/10/01 02:01:01;;;;;;;11.65;5.15;;;9.10;99.90;;;;;;4963706;28;20117;-77
2023/10/01 02:03:32;;;;;;;10.48;4.95;;;9.10;99.90;;;;;;4982392;28;20074;-78
2023/10/01 02:05:59;;;;;;;10.55;5.07;;;9.10;99.90;;;;;;4961877;28;20102;-81
2023/10/01 02:08:25;;;;;;;8.38;4.85;;;9.10;99.90;;;;;;4974331;28;20050;-79
2023/10/01 02:10:56;;;;;;;9.07;5.30;;;9.10;99.90;;;;;;4959630;28;20035;-78
2023/10/01 02:13:25;;;;;;;8.30;5.25;;;9.00;99.90;;;;;;4961797;28;20030;-80
2023/10/01 02:15:52;;;;;;;8.70;4.80;;;9.10;99.90;;;;;;4976038;28;20035;-77
2023/10/01 02:18:20;;;;;;;8.02;4.88;;;9.10;99.90;;;;;;4971342;28;20102;-80
2023/10/01 02:20:55;;;;;;;10.00;5.18;;;9.10;99.90;;;;;;4983712;28;20022;-81
2023/10/01 02:23:32;;;;;;;9.52;4.65;;;9.00;99.90;;;;;;4961966;28;20109;-80
2023/10/01 02:26:00;;;;;;;12.07;5.55;;;9.00;99.90;;;;;;4985459;28;20038;-80
2023/10/01 02:28:27;;;;;;;11.05;5.90;;;9.00;99.90;;;;;;4985121;28;20031;-80
2023/10/01 02:31:00;;;;;;;10.65;5.88;;;8.90;99.90;;;;;;4977928;28;20089;-80
2023/10/01 02:33:55;;;;;;;8.57;5.28;;;8.90;99.90;;;;;;4978190;28;20039;-80
2023/10/01 02:36:13;;;;;;;9.43;5.25;;;8.80;99.90;;;;;;4978279;28;20139;-81
2023/10/01 02:38:53;;;;;;;9.65;4.82;;;8.80;99.90;;;;;;4973025;28;20498;-79
2023/10/01 02:41:25;;;;;;;10.38;4.80;;;8.80;99.90;;;;;;4968394;28;20027;-80
2023/10/01 02:43:52;;;;;;;8.52;4.40;;;8.80;99.90;;;;;;4953477;28;20109;-81
2023/10/01 02:46:26;;;;;;;10.07;4.95;;;8.80;99.90;;;;;;4977603;28;20357;-81
2023/10/01 02:48:59;;;;;;;11.50;4.85;;;8.80;99.90;;;;;;4958799;28;20043;-81
2023/10/01 02:51:37;;;;;;;10.85;4.95;;;8.80;99.90;;;;;;4980937;28;20030;-80
2023/10/01 02:54:09;;;;;;;7.90;4.47;;;8.80;99.90;;;;;;4960809;28;20458;-81
2023/10/01 02:56:52;;;;;;;8.63;5.20;;;8.80;99.90;;;;;;4961203;28;20033;-82
2023/10/01 02:59:20;;;;;;;8.85;5.03;;;8.80;99.90;;;;;;4942745;28;20038;-81
2023/10/01 03:01:46;;;;;;;9.80;4.70;;;8.70;99.90;;;;;;4961774;28;20035;-81
2023/10/01 03:04:16;;;;;;;8.20;5.00;;;8.70;99.90;;;;;;4954330;28;20023;-81
2023/10/01 03:06:55;;;;;;;12.77;5.80;;;8.70;99.90;;;;;;4981206;28;20027;-82
2023/10/01 03:09:31;;;;;;;9.27;5.07;;;8.70;99.90;;;;;;4973331;28;20035;-80
2023/10/01 03:15:00;;;;;;;;;;;8.70;99.90;;;;;;4970822;28;20054;-81
2023/10/01 03:17:28;;;;;;;9.90;5.20;;;8.60;99.90;;;;;;4978472;28;19914;-81
2023/10/01 03:19:54;;;;;;;9.57;4.85;;;8.30;99.90;;;;;;4977632;28;20125;-78
2023/10/01 03:22:23;;;;;;;9.35;5.50;;;8.20;99.90;;;;;;4984287;28;20058;-79
2023/10/01 03:24:52;;;;;;;10.90;5.70;;;8.20;99.90;;;;;;4979893;28;20109;-80
2023/10/01 03:27:27;;;;;;;12.07;5.60;;;8.20;99.90;;;;;;4986462;28;20121;-79
2023/10/01 03:30:12;;;;;;;8.43;4.95;;;8.20;99.90;;;;;;4982716;28;20609;-80
2023/10/01 03:32:40;;;;;;;9.00;5.15;;;8.20;99.90;;;;;;4978222;28;20537;-79
2023/10/01 03:35:08;;;;;;;10.85;5.20;;;8.20;99.90;;;;;;4987302;28;20302;-79
2023/10/01 03:37:38;;;;;;;11.63;5.80;;;8.20;99.90;;;;;;4981644;28;20411;-79
2023/10/01 03:40:21;;;;;;;9.65;5.75;;;8.20;99.90;;;;;;4981021;28;20058;-79
2023/10/01 03:42:51;;;;;;;6.50;4.93;;;8.20;99.90;;;;;;4976462;28;20034;-80
2023/10/01 03:45:26;;;;;;;9.27;5.07;;;8.30;99.90;;;;;;4985706;28;20038;-79
2023/10/01 03:47:57;;;;;;;11.50;5.40;;;8.30;99.90;;;;;;4987454;28;20054;-80
2023/10/01 03:50:25;;;;;;;9.75;5.65;;;8.40;99.90;;;;;;4980601;28;20034;-79
2023/10/01 03:52:54;;;;;;;9.20;5.85;;;8.40;99.90;;;;;;4979475;28;20495;-80
2023/10/01 04:00:41;;;;;;;9.73;5.70;;;8.40;99.90;;;;;;4977347;28;20034;-79
2023/10/01 04:03:14;;;;;;;10.20;5.47;;;8.40;99.90;;;;;;4982398;28;20039;-78
2023/10/01 04:05:44;;;;;;;9.57;5.78;;;8.50;99.90;;;;;;4977596;28;20038;-77
2023/10/01 04:08:14;;;;;;;11.43;6.25;;;8.40;99.90;;;;;;4978876;28;20107;-78
2023/10/01 04:10:41;;;;;;;10.45;5.70;;;8.50;99.90;;;;;;4978169;28;20027;-77
2023/10/01 04:13:20;;;;;;;10.88;5.65;;;8.50;99.90;;;;;;4980130;28;20507;-77
2023/10/01 04:15:48;;;;;;;8.68;5.43;;;8.40;99.90;;;;;;4965462;28;20029;-78
2023/10/01 04:21:35;;;;;;;11.27;5.57;;;8.40;99.90;;;;;;4980680;28;20039;-78
2023/10/01 04:23:47;;;;;;;7.65;5.05;;;8.50;99.90;;;;;;4949555;28;20073;-79
2023/10/01 04:26:16;;;;;;;9.45;5.05;;;8.50;99.90;;;;;;4974782;28;20022;-77
2023/10/01 04:28:45;;;;;;;9.27;5.60;;;8.50;99.90;;;;;;4991356;28;20110;-78
2023/10/01 04:31:15;;;;;;;9.40;5.00;;;8.50;99.90;;;;;;4985663;28;20045;-78
2023/10/01 04:33:49;;;;;;;9.30;5.38;;;8.60;99.90;;;;;;4975265;28;20037;-78
2023/10/01 04:36:16;;;;;;;9.73;5.20;;;8.60;99.90;;;;;;4979650;28;20110;-77
2023/10/01 04:38:46;;;;;;;9.25;4.82;;;8.50;99.90;;;;;;4976769;28;20537;-78
2023/10/01 04:41:22;;;;;;;11.35;5.60;;;8.50;99.90;;;;;;4965230;28;20027;-78
2023/10/01 04:44:00;;;;;;;6.72;3.60;;;8.50;99.90;;;;;;4971891;28;20027;-78
2023/10/01 04:46:27;;;;;;;6.85;3.88;;;8.50;99.90;;;;;;4976605;28;20179;-77
2023/10/01 04:48:54;;;;;;;6.18;4.30;;;8.40;99.90;;;;;;4983541;28;20038;-79
2023/10/01 04:51:22;;;;;;;8.18;4.78;;;8.30;99.90;;;;;;4982679;28;20057;-81
2023/10/01 04:53:52;;;;;;;7.88;4.60;;;8.30;99.90;;;;;;4944947;28;20038;-81
2023/10/01 04:56:21;;;;;;;6.15;4.07;;;8.30;99.90;;;;;;4980232;28;20791;-79
2023/10/01 04:59:07;;;;;;;7.47;3.83;;;8.30;99.90;;;;;;4980385;28;20069;-79
2023/10/01 05:01:33;;;;;;;6.43;3.65;;;8.30;99.90;;;;;;4977071;28;20848;-81
2023/10/01 05:03:59;;;;;;;6.30;3.67;;;8.20;99.90;;;;;;4980483;28;20031;-81
2023/10/01 05:06:27;;;;;;;6.85;4.07;;;8.10;99.90;;;;;;4991151;28;20031;-81
2023/10/01 05:08:56;;;;;;;7.90;4.47;;;8.10;99.90;;;;;;4979783;28;20700;-79
2023/10/01 05:11:23;;;;;;;7.05;4.32;;;8.10;99.90;;;;;;4988968;28;20181;-81
2023/10/01 05:13:51;;;;;;;8.00;4.60;;;8.00;99.90;;;;;;4963876;28;20399;-80
2023/10/01 05:16:18;;;;;;;9.73;4.90;;;8.00;99.90;;;;;;4978035;28;20023;-81
2023/10/01 05:18:45;;;;;;;8.27;4.60;;;8.00;99.90;;;;;;4961845;28;20629;-79
2023/10/01 05:21:12;;;;;;;9.95;5.28;;;7.90;99.90;;;;;;4980270;28;20420;-80
2023/10/01 05:23:39;;;;;;;8.27;4.43;;;7.90;99.90;;;;;;4985417;28;20355;-79
2023/10/01 05:26:08;;;;;;;6.70;4.47;;;7.90;99.90;;;;;;4979998;28;20029;-80
2023/10/01 05:28:41;;;;;;;7.60;4.18;;;7.80;99.90;;;;;;4980077;28;20041;-80
2023/10/01 05:31:15;;;;;;;7.25;4.53;;;7.80;99.90;;;;;;4980662;28;20092;-80
2023/10/01 05:34:00;;;;;;;8.20;4.97;;;7.90;99.90;;;;;;4975418;28;20069;-79
2023/10/01 05:36:26;;;;;;;9.18;4.90;;;7.80;99.90;;;;;;4969346;28;20037;-79
2023/10/01 05:38:53;;;;;;;7.18;4.43;;;7.90;99.90;;;;;;4974134;28;20027;-80
2023/10/01 05:41:32;;;;;;;9.00;5.10;;;7.90;99.90;;;;;;4972980;28;20039;-80
2023/10/01 05:44:02;;;;;;;8.00;4.63;;;7.90;99.90;;;;;;4977035;28;20046;-80
2023/10/01 05:46:28;;;;;;;8.05;4.60;;;7.80;99.90;;;;;;4975292;28;20067;-79
2023/10/01 05:49:00;;;;;;;7.03;4.40;;;7.80;99.90;;;;;;4982455;28;20043;-81
2023/10/01 05:51:45;;;;;;;6.43;3.70;;;7.80;99.90;;;;;;4984554;28;20038;-80
2023/10/01 05:54:18;;;;;;;7.18;4.55;;;7.80;99.90;;;;;;4977907;28;20067;-81
2023/10/01 05:56:47;;;;;;;5.72;3.85;;;7.80;99.90;;;;;;4981371;28;20027;-81
2023/10/01 05:59:14;;;;;;;7.60;4.55;;;7.80;99.90;;;;;;4980997;28;20117;-81
2023/10/01 06:01:41;;;;;;;7.63;3.70;;;7.80;99.90;;;;;;4983371;28;20106;-81
2023/10/01 06:04:12;;;;;;;7.00;3.90;;;7.90;99.90;;;;;;4978161;28;20657;-81
2023/10/01 06:06:42;;;;;;;5.47;3.60;;;7.90;99.90;;;;;;4958217;28;20082;-81
2023/10/01 06:09:14;;;;;;;7.35;4.40;;;8.00;99.90;;;;;;4977836;28;20027;-81
2023/10/01 06:12:00;;;;;;;8.27;4.43;;;8.00;99.90;;;;;;4975615;28;20031;-82
2023/10/01 06:14:41;;;;;;;8.18;4.53;;;8.00;99.90;;;;;;4975082;28;20126;-81
2023/10/01 06:17:10;;;;;;;7.05;4.65;;;8.10;99.90;;;;;;4977469;28;20051;-80
2023/10/01 06:19:40;;;;;;;8.82;4.68;;;8.30;99.90;;;;;;4976153;28;20031;-80
2023/10/01 06:22:13;;;;;;;7.47;4.53;;;8.40;99.90;;;;;;4986411;28;20035;-81
2023/10/01 06:24:46;;;;;;;9.57;5.72;;;8.60;99.90;;;;;;4984109;28;20050;-79
2023/10/01 06:27:13;;;;;;;9.40;6.00;;;8.80;99.90;;;;;;4983122;28;20045;-79
2023/10/01 06:29:49;;;;;;;11.13;6.80;;;9.00;99.90;;;;;;4976015;28;20477;-80
2023/10/01 06:32:17;;;;;;;13.48;7.40;;;9.20;99.90;;;;;;4982449;28;20031;-82
2023/10/01 06:34:45;;;;;;;16.05;8.10;;;9.30;99.90;;;;;;4992653;28;20188;-82
2023/10/01 06:37:12;;;;;;;14.23;7.72;;;9.50;99.90;;;;;;4983734;28;20661;-81
2023/10/01 06:39:40;;;;;;;8.38;5.75;;;9.70;99.90;;;;;;4981605;28;20026;-79
2023/10/01 06:42:19;;;;;;;11.27;7.43;;;9.90;99.90;;;;;;4980646;28;20717;-81
2023/10/01 06:44:52;;;;;;;14.98;7.35;;;10.10;99.90;;;;;;4977974;28;20037;-80
2023/10/01 06:47:22;;;;;;;14.10;8.05;;;10.40;99.90;;;;;;4983176;28;20038;-80
2023/10/01 06:52:35;;;;;;;12.20;6.75;;;10.80;99.90;;;;;;4979010;28;20098;-80
2023/10/01 06:55:04;;;;;;;9.40;6.10;;;11.00;99.90;;;;;;4974994;28;20031;-81
2023/10/01 06:57:33;;;;;;;12.20;7.22;;;11.20;99.90;;;;;;4986278;28;20118;-80
2023/10/01 06:59:59;;;;;;;10.80;6.68;;;11.30;99.90;;;;;;4978558;28;20038;-81
2023/10/01 07:02:26;;;;;;;9.63;6.35;;;11.50;99.90;;;;;;4974676;28;20027;-79
2023/10/01 07:04:58;;;;;;;8.65;5.85;;;11.70;99.90;;;;;;4975543;28;20030;-79
2023/10/01 07:07:31;;;;;;;11.27;6.55;;;11.80;99.90;;;;;;4982124;28;20415;-81
2023/10/01 07:10:00;;;;;;;9.85;5.80;;;12.00;99.90;;;;;;4983862;28;20038;-80
2023/10/01 07:12:26;;;;;;;13.80;6.20;;;12.20;99.90;;;;;;4979288;28;20038;-79
2023/10/01 07:14:52;;;;;;;12.73;6.80;;;12.20;99.90;;;;;;4979373;28;20086;-80
2023/10/01 07:17:23;;;;;;;14.25;6.32;;;12.20;99.90;;;;;;4984987;28;20431;-79
2023/10/01 07:19:59;;;;;;;11.57;7.15;;;12.40;99.90;;;;;;4973451;28;20030;-80
2023/10/01 07:22:32;;;;;;;13.90;7.00;;;12.40;99.90;;;;;;4985058;28;20038;-80
2023/10/01 07:25:03;;;;;;;11.10;7.10;;;12.60;99.90;;;;;;4978829;28;20043;-80
2023/10/01 07:27:29;;;;;;;10.23;5.13;;;12.70;99.90;;;;;;4972165;28;20037;-80
2023/10/01 07:29:56;;;;;;;9.60;5.78;;;12.80;99.90;;;;;;4972730;28;20033;-80
2023/10/01 07:32:24;;;;;;;9.85;6.43;;;13.00;99.90;;;;;;4976006;28;20041;-78
2023/10/01 07:34:58;;;;;;;15.50;8.07;;;13.10;99.90;;;;;;4982911;28;20638;-79
2023/10/01 07:37:31;;;;;;;11.85;7.03;;;13.20;99.90;;;;;;4992208;28;20530;-79
2023/10/01 07:40:08;;;;;;;11.27;6.57;;;13.30;99.90;;;;;;4970225;28;20037;-80
2023/10/01 07:42:46;;;;;;;17.65;6.90;;;13.30;99.90;;;;;;4976814;28;20049;-79
2023/10/01 07:45:16;;;;;;;11.93;7.10;;;13.40;99.90;;;;;;4975108;28;20106;-79
2023/10/01 07:47:43;;;;;;;13.75;7.80;;;13.30;99.90;;;;;;4981374;28;20614;-78
2023/10/01 07:50:12;;;;;;;14.23;8.02;;;13.30;99.90;;;;;;4979538;28;20023;-78
2023/10/01 07:52:40;;;;;;;13.63;6.85;;;13.50;99.90;;;;;;4963726;28;20085;-79
2023/10/01 07:57:52;;;;;;;13.23;7.07;;;13.60;99.90;;;;;;4980806;28;20030;-78
2023/10/01 08:00:26;;;;;;;10.30;5.82;;;13.70;99.90;;;;;;4960392;28;20018;-77
2023/10/01 08:05:40;;;;;;;11.00;6.53;;;13.90;99.90;;;;;;4961551;28;20613;-78
2023/10/01 08:08:09;;;;;;;10.13;6.43;;;13.80;99.90;;;;;;4975467;28;20039;-78
2023/10/01 08:10:37;;;;;;;12.75;6.45;;;13.80;99.90;;;;;;4978739;28;20038;-78
2023/10/01 08:13:23;;;;;;;11.10;6.80;;;13.80;99.90;;;;;;4960386;28;20054;-77
2023/10/01 08:16:01;;;;;;;16.30;6.25;;;13.90;99.90;;;;;;4960640;28;20053;-79
2023/10/01 08:18:42;;;;;;;13.63;6.45;;;14.00;99.90;;;;;;4968879;28;20026;-78
2023/10/01 08:21:17;;;;;;;11.65;6.63;;;14.20;99.90;;;;;;4970743;28;20050;-79
2023/10/01 08:23:54;;;;;;;14.93;6.32;;;14.40;99.90;;;;;;4968657;28;20481;-77
2023/10/01 08:29:06;;;;;;;8.17;5.50;;;14.60;99.90;;;;;;4976876;28;20030;-77
2023/10/01 08:34:23;;;;;;;11.52;7.25;;;14.90;99.90;;;;;;4978730;28;20034;-77
2023/10/01 08:36:56;;;;;;;10.15;5.55;;;15.00;99.90;;;;;;4978395;28;20458;-77
2023/10/01 08:39:36;;;;;;;9.48;5.50;;;15.10;99.90;;;;;;4974421;28;20034;-77
2023/10/01 08:42:12;;;;;;;8.88;5.88;;;15.10;99.90;;;;;;4975288;28;20042;-77
2023/10/01 08:44:52;;;;;;;8.23;5.78;;;15.20;99.90;;;;;;4975571;28;20014;-77
2023/10/01 08:47:27;;;;;;;11.05;5.45;;;15.20;99.90;;;;;;4974882;28;20034;-77
2023/10/01 08:49:55;;;;;;;9.15;5.30;;;15.30;99.90;;;;;;4963984;28;20030;-77
2023/10/01 08:52:30;;;;;;;12.60;6.65;;;15.30;99.90;;;;;;4967975;28;20377;-77
2023/10/01 08:54:56;;;;;;;11.20;6.90;;;15.40;99.90;;;;;;4973868;28;20049;-78
2023/10/01 08:57:45;;;;;;;16.05;6.88;;;15.40;99.90;;;;;;4970644;28;20041;-78
2023/10/01 09:00:20;;;;;;;11.60;6.32;;;15.40;99.90;;;;;;4973721;28;20037;-78
2023/10/01 09:03:10;;;;;;;9.40;5.53;;;15.50;99.90;;;;;;4965329;28;20042;-77
2023/10/01 09:05:46;;;;;;;10.02;5.28;;;15.60;99.90;;;;;;4966328;28;20031;-79
2023/10/01 09:08:29;;;;;;;8.38;4.72;;;15.60;99.90;;;;;;4951008;28;20026;-81
2023/10/01 09:10:55;;;;;;;8.88;5.32;;;15.70;99.90;;;;;;4963721;28;20041;-80
2023/10/01 09:13:21;;;;;;;12.27;5.20;;;15.80;99.90;;;;;;4979548;28;20024;-79
2023/10/01 09:15:55;;;;;;;9.98;5.43;;;15.80;99.90;;;;;;4971910;28;20027;-80
2023/10/01 09:18:22;;;;;;;7.75;5.53;;;15.90;99.90;;;;;;4975140;28;20027;-80
2023/10/01 09:21:08;;;;;;;8.35;5.00;;;16.00;99.90;;;;;;4969537;28;20038;-80
2023/10/01 09:23:57;;;;;;;10.32;4.85;;;16.00;99.90;;;;;;4971514;28;20035;-79
2023/10/01 09:26:53;;;;;;;9.90;5.13;;;16.10;99.90;;;;;;4968144;28;20023;-79
2023/10/01 09:29:24;;;;;;;11.40;4.75;;;16.10;99.90;;;;;;4967170;28;20039;-79
2023/10/01 09:31:58;;;;;;;9.85;4.88;;;16.20;99.90;;;;;;4965069;28;20434;-80
2023/10/01 09:34:33;;;;;;;8.70;4.60;;;16.30;99.90;;;;;;4952774;28;20368;-79
2023/10/01 09:37:03;;;;;;;11.43;5.15;;;16.40;99.90;;;;;;4954613;28;20483;-79
2023/10/01 09:39:38;;;;;;;8.10;5.00;;;16.50;99.90;;;;;;4973118;28;20090;-79
2023/10/01 09:42:25;;;;;;;8.67;4.57;;;16.50;99.90;;;;;;4980692;28;20031;-79
2023/10/01 09:44:55;;;;;;;12.90;5.45;;;16.50;99.90;;;;;;4970664;28;20029;-78
2023/10/01 09:47:27;;;;;;;9.35;4.50;;;16.50;99.90;;;;;;4972470;28;20061;-80
2023/10/01 09:49:54;;;;;;;9.32;4.85;;;16.60;99.90;;;;;;4971969;28;20482;-80
2023/10/01 09:52:30;;;;;;;11.05;4.90;;;16.60;99.90;;;;;;4980054;28;20047;-80
2023/10/01 09:54:59;;;;;;;9.05;4.90;;;16.60;99.90;;;;;;4974190;28;20031;-79
2023/10/01 09:57:26;;;;;;;9.15;4.60;;;16.60;99.90;;;;;;4964690;28;20027;-79
2023/10/01 10:00:14;;;;;;;7.85;4.25;;;16.60;99.90;;;;;;4965500;28;20078;-80
2023/10/01 10:02:48;;;;;;;9.38;4.82;;;16.70;99.90;;;;;;4957583;28;20632;-80
2023/10/01 10:05:24;;;;;;;8.85;4.55;;;16.70;99.90;;;;;;4960779;28;20049;-80
2023/10/01 10:07:55;;;;;;;8.15;4.47;;;16.80;99.90;;;;;;4955200;28;20254;-80
2023/10/01 10:10:25;;;;;;;10.05;4.90;;;16.90;99.90;;;;;;4968073;28;20062;-80
2023/10/01 10:12:56;;;;;;;7.45;4.60;;;17.00;99.90;;;;;;4970531;28;20090;-79
2023/10/01 10:15:57;;;;;;;9.85;4.85;;;17.00;99.90;;;;;;4974736;28;20109;-79
2023/10/01 10:18:23;;;;;;;8.88;4.07;;;17.10;99.90;;;;;;4977315;28;20168;-80
2023/10/01 10:21:00;;;;;;;8.35;4.60;;;17.10;99.90;;;;;;4957720;28;20050;-80
2023/10/01 10:23:31;;;;;;;11.48;4.82;;;17.10;99.90;;;;;;4944250;28;20100;-80
2023/10/01 10:26:35;;;;;;;9.30;4.57;;;17.10;99.90;;;;;;4972199;28;20055;-78
2023/10/01 10:29:10;;;;;;;9.43;4.68;;;17.10;99.90;;;;;;4973189;28;20073;-78
2023/10/01 10:31:39;;;;;;;;;;;17.10;99.90;;;;;;4979859;28;20046;-78
2023/10/01 10:34:29;;;;;;;9.27;4.60;;;17.20;99.90;;;;;;4961013;28;19949;-78
2023/10/01 10:36:55;;;;;;;8.77;4.63;;;17.20;99.90;;;;;;4971689;28;20471;-79
2023/10/01 10:39:49;;;;;;;9.57;4.65;;;17.20;99.90;;;;;;4972833;28;20037;-79
2023/10/01 10:42:35;;;;;;;7.95;5.10;;;17.30;99.90;;;;;;4978851;28;20030;-78
2023/10/01 10:45:24;;;;;;;9.43;4.80;;;17.30;99.90;;;;;;4980126;28;20049;-80
2023/10/01 10:48:03;;;;;;;9.63;4.53;;;17.40;99.90;;;;;;4973406;28;20031;-79
2023/10/01 10:51:02;;;;;;;8.75;4.88;;;17.40;99.90;;;;;;4976113;28;20039;-80
2023/10/01 10:53:29;;;;;;;9.32;4.68;;;17.50;99.90;;;;;;4975973;28;20042;-78
2023/10/01 10:56:05;;;;;;;10.32;4.75;;;17.50;99.90;;;;;;4982599;28;20591;-78
2023/10/01 10:58:42;;;;;;;10.60;5.15;;;17.60;99.90;;;;;;4969944;28;20110;-80
2023/10/01 11:01:15;;;;;;;9.68;5.07;;;17.60;99.90;;;;;;4976096;28;20035;-77
2023/10/01 11:03:55;;;;;;;7.88;4.38;;;17.70;99.90;;;;;;4976931;28;20086;-80
2023/10/01 11:06:24;;;;;;;7.20;4.22;;;17.70;99.90;;;;;;4972273;28;20038;-79
2023/10/01 11:08:51;;;;;;;7.07;4.32;;;17.80;99.90;;;;;;4967889;28;20058;-79
2023/10/01 11:11:39;;;;;;;7.25;4.10;;;17.90;99.90;;;;;;4980035;28;20096;-81
2023/10/01 11:14:12;;;;;;;9.38;4.38;;;18.00;99.90;;;;;;4963878;28;20978;-78
2023/10/01 11:16:44;;;;;;;10.00;4.65;;;18.00;99.90;;;;;;4988021;28;20360;-78
2023/10/01 11:19:12;;;;;;;12.05;4.78;;;18.10;99.90;;;;;;4954793;28;20022;-79
2023/10/01 11:21:54;;;;;;;8.70;4.32;;;18.20;99.90;;;;;;4978112;28;20410;-79
2023/10/01 11:24:41;;;;;;;10.73;5.32;;;18.30;99.90;;;;;;4961860;28;20126;-79
2023/10/01 11:27:25;;;;;;;7.20;4.05;;;18.30;99.90;;;;;;4970686;28;20039;-81
2023/10/01 11:30:24;;;;;;;9.20;4.50;;;18.30;99.90;;;;;;4973588;28;20559;-79
2023/10/01 11:35:59;;;;;;;9.27;4.25;;;18.30;99.90;;;;;;4972214;28;20038;-78
2023/10/01 11:38:32;;;;;;;13.05;4.35;;;18.30;99.90;;;;;;4964176;28;20451;-78
2023/10/01 11:41:09;;;;;;;9.35;4.95;;;18.40;99.90;;;;;;4974536;28;20039;-78
2023/10/01 11:44:02;;;;;;;7.25;4.00;;;18.50;99.90;;;;;;4951944;28;20042;-78
2023/10/01 11:46:32;;;;;;;8.23;4.00;;;18.70;99.90;;;;;;4970160;28;20118;-79
2023/10/01 11:49:07;;;;;;;8.05;4.72;;;18.80;99.90;;;;;;4980203;28;20122;-79
2023/10/01 11:51:42;;;;;;;8.40;4.55;;;19.00;99.90;;;;;;4977260;28;20038;-79
2023/10/01 11:54:09;;;;;;;10.95;4.32;;;19.10;99.90;;;;;;4970285;28;20096;-79
2023/10/01 11:57:19;;;;;;;8.85;4.20;;;19.20;99.90;;;;;;4971898;28;20476;-78
2023/10/01 11:59:46;;;;;;;9.10;4.55;;;19.40;99.90;;;;;;4964888;28;20118;-79
2023/10/01 12:02:18;;;;;;;9.10;4.70;;;19.50;99.90;;;;;;4971271;28;20027;-78
2023/10/01 12:04:44;;;;;;;9.50;5.13;;;19.50;99.90;;;;;;4974527;28;20045;-79
2023/10/01 12:07:15;;;;;;;8.15;4.15;;;19.60;99.90;;;;;;4969871;28;20105;-78
2023/10/01 12:09:48;;;;;;;8.30;4.53;;;19.60;99.90;;;;;;4968869;28;20041;-79
2023/10/01 12:12:36;;;;;;;7.47;4.10;;;19.60;99.90;;;;;;4969853;28;20039;-78
2023/10/01 12:17:57;;;;;;;7.45;4.03;;;19.60;99.90;;;;;;4968668;28;20413;-79
2023/10/01 12:20:23;;;;;;;8.38;4.43;;;19.60;99.90;;;;;;4957910;28;20077;-78
2023/10/01 12:25:53;;;;;;;9.20;4.40;;;19.60;99.90;;;;;;4948799;28;20093;-78
2023/10/01 12:28:27;;;;;;;8.18;4.00;;;19.50;99.90;;;;;;4968074;28;20066;-78
2023/10/01 12:30:58;;;;;;;6.40;3.92;;;19.50;99.90;;;;;;4971003;28;20023;-80
2023/10/01 12:33:24;;;;;;;7.88;4.07;;;19.50;99.90;;;;;;4969707;28;20031;-79
2023/10/01 12:35:50;;;;;;;7.43;3.83;;;19.50;99.90;;;;;;4974410;28;20034;-80
2023/10/01 12:40:49;;;;;;;6.75;3.78;;;19.40;99.90;;;;;;4978195;28;20113;-80
2023/10/01 12:45:59;;;;;;;7.85;4.00;;;19.30;99.90;;;;;;4967737;28;20039;-78
2023/10/01 12:48:24;;;;;;;6.80;3.85;;;19.40;99.90;;;;;;4969915;28;20034;-79
2023/10/01 12:51:08;;;;;;;7.10;3.65;;;19.40;99.90;;;;;;4970486;28;20037;-78
2023/10/01 12:53:47;;;;;;;8.15;4.05;;;19.40;99.90;;;;;;4960213;28;20038;-79
2023/10/01 12:56:15;;;;;;;7.50;4.28;;;19.30;99.90;;;;;;4974907;28;20034;-78
2023/10/01 12:58:53;;;;;;;7.82;4.30;;;19.40;99.90;;;;;;4974250;28;20026;-79
2023/10/01 13:01:31;;;;;;;6.57;3.95;;;19.40;99.90;;;;;;4954330;28;20483;-79
2023/10/01 13:04:21;;;;;;;7.72;3.92;;;19.30;98.70;;;;;;4961171;28;20065;-79
2023/10/01 13:06:47;;;;;;;8.50;4.07;;;19.30;99.90;;;;;;4950368;28;20118;-79
2023/10/01 13:12:15;;;;;;;;;;;19.20;99.90;;;;;;4966567;28;20034;-78
2023/10/01 13:15:14;;;;;;;8.95;4.07;;;19.10;99.90;;;;;;4972178;28;20543;-80
2023/10/01 13:17:38;;;;;;;7.10;3.70;;;19.10;99.90;;;;;;4982422;28;20101;-80
2023/10/01 13:20:18;;;;;;;6.93;4.05;;;19.00;99.90;;;;;;4982423;28;20047;-80
2023/10/01 13:22:59;;;;;;;6.72;3.55;;;18.90;99.90;;;;;;4956747;28;20039;-81
2023/10/01 13:25:28;;;;;;;7.65;3.63;;;18.90;99.90;;;;;;4962112;28;20106;-80
2023/10/01 13:28:04;;;;;;;7.70;4.05;;;18.70;99.90;;;;;;4965755;28;20086;-81
2023/10/01 13:33:25;;;;;;;5.68;3.30;;;18.50;99.90;;;;;;4970815;28;20057;-81
2023/10/01 13:35:58;;;;;;;7.45;3.63;;;18.40;99.90;;;;;;4972511;28;20042;-81
2023/10/01 13:38:52;;;;;;;8.00;3.78;;;18.40;99.90;;;;;;4963936;28;20550;-80
2023/10/01 14:08:50;;;;;;;6.25;3.47;;;18.40;99.90;;;;;;4971561;28;20085;-78
2023/10/01 14:11:17;;;;;;;9.80;4.00;;;18.20;99.90;;;;;;4975437;28;20073;-79
2023/10/01 14:13:44;;;;;;;6.60;3.78;;;18.20;99.90;;;;;;4974698;28;20041;-78
2023/10/01 14:16:17;;;;;;;8.18;4.03;;;18.20;99.90;;;;;;4973715;28;20652;-79
2023/10/01 14:18:54;;;;;;;8.10;3.70;;;18.20;99.90;;;;;;4970442;28;20510;-80
2023/10/01 14:21:24;;;;;;;7.55;3.63;;;18.20;99.90;;;;;;4968976;28;20074;-78
2023/10/01 14:23:57;;;;;;;7.57;3.92;;;18.20;99.90;;;;;;4950969;28;20069;-77
2023/10/01 14:26:35;;;;;;;6.32;3.85;;;18.20;99.90;;;;;;4971993;28;20098;-78
2023/10/01 14:29:05;;;;;;;8.57;3.92;;;18.30;99.90;;;;;;4969431;28;20033;-79
2023/10/01 14:31:41;;;;;;;6.25;3.72;;;18.30;99.90;;;;;;4965539;28;20073;-78